Time;durP1;ratioP1;P1;durP2;ratioP2;P2;SDS_P1;SDS_P2;PMS_P1;PMS_P2;Temp;Humidity;BMP_temperature;BMP_pressure;BME280_temperature;BME280_humidity;BME280_pressure;Samples;Min_cycle;Max_cycle;Signal;HPM_P1;HPM_P2
2022/03/08 00:00:34;;;;;;;14.98;13.40;;;-1.00;67.50;;;;;;5109870;28;20197;-82
2022/03/08 00:03:01;;;;;;;21.65;15.95;;;-0.90;67.80;;;;;;5110819;28;20200;-81
2022/03/08 00:05:28;;;;;;;18.40;14.10;;;-0.90;67.90;;;;;;5109933;28;20602;-81
2022/03/08 00:07:56;;;;;;;17.10;13.95;;;-0.90;68.00;;;;;;5109927;28;20215;-81
2022/03/08 00:10:23;;;;;;;15.43;12.30;;;-0.90;68.00;;;;;;5109168;28;20224;-81
2022/03/08 00:12:50;;;;;;;16.98;15.13;;;-0.90;67.90;;;;;;5110582;28;20208;-81
2022/03/08 00:15:19;;;;;;;16.30;13.80;;;-0.90;67.90;;;;;;5095613;28;20193;-81
2022/03/08 00:17:48;;;;;;;22.48;14.88;;;-1.00;68.30;;;;;;5090565;28;20208;-81
2022/03/08 00:20:15;;;;;;;20.90;14.75;;;-1.00;68.60;;;;;;5103873;28;20224;-81
2022/03/08 00:22:43;;;;;;;15.68;11.75;;;-1.10;68.70;;;;;;5110627;28;20208;-81
2022/03/08 00:25:11;;;;;;;15.80;12.30;;;-1.10;68.90;;;;;;5096180;28;20227;-81
2022/03/08 00:27:42;;;;;;;16.45;13.05;;;-1.10;69.00;;;;;;5090105;28;20215;-81
2022/03/08 00:30:10;;;;;;;15.93;12.40;;;-1.00;68.90;;;;;;5090156;28;20236;-81
2022/03/08 00:32:36;;;;;;;16.60;11.90;;;-1.00;69.00;;;;;;5090234;28;20215;-81
2022/03/08 00:35:06;;;;;;;17.27;12.50;;;-1.10;69.20;;;;;;5101541;28;20203;-81
2022/03/08 00:37:33;;;;;;;14.95;12.02;;;-1.10;69.10;;;;;;5109601;28;20204;-81
2022/03/08 00:39:59;;;;;;;15.98;11.57;;;-1.10;69.40;;;;;;5099271;28;20222;-81
2022/03/08 00:42:26;;;;;;;12.57;9.90;;;-1.10;69.10;;;;;;5089694;28;20212;-81
2022/03/08 00:44:53;;;;;;;13.43;11.60;;;-1.20;68.90;;;;;;5098149;28;20203;-82
2022/03/08 00:47:20;;;;;;;13.23;10.23;;;-1.20;69.20;;;;;;5109889;28;20208;-81
2022/03/08 00:49:47;;;;;;;11.52;9.48;;;-1.30;69.40;;;;;;5102377;28;20226;-81
2022/03/08 00:52:15;;;;;;;11.95;9.80;;;-1.20;69.40;;;;;;5088953;28;20205;-81
2022/03/08 00:54:42;;;;;;;21.45;12.55;;;-1.30;69.40;;;;;;5091145;28;20203;-81
2022/03/08 00:57:08;;;;;;;12.77;11.13;;;-1.40;69.30;;;;;;5089365;28;20228;-81
2022/03/08 00:59:35;;;;;;;10.63;9.55;;;-1.30;69.40;;;;;;5093392;28;20869;-81
2022/03/08 01:02:02;;;;;;;13.18;10.13;;;-1.50;69.80;;;;;;5109421;28;20208;-81
2022/03/08 01:04:29;;;;;;;13.43;10.65;;;-1.50;70.20;;;;;;5106780;28;20205;-81
2022/03/08 01:06:56;;;;;;;11.77;9.57;;;-1.60;70.20;;;;;;5089869;28;20233;-81
2022/03/08 01:09:24;;;;;;;13.35;10.63;;;-1.60;70.50;;;;;;5090560;28;20235;-82
2022/03/08 01:11:51;;;;;;;13.15;10.68;;;-1.60;70.70;;;;;;5109271;28;20208;-81
2022/03/08 01:14:18;;;;;;;14.05;9.98;;;-1.60;70.80;;;;;;5108394;28;20200;-81
2022/03/08 01:16:45;;;;;;;10.50;9.40;;;-1.50;70.70;;;;;;5109182;28;20213;-81
2022/03/08 01:19:12;;;;;;;11.85;10.30;;;-1.50;70.70;;;;;;5103052;28;20224;-81
2022/03/08 01:21:38;;;;;;;11.65;9.40;;;-1.50;71.00;;;;;;5088627;28;20213;-81
2022/03/08 01:24:06;;;;;;;13.35;9.30;;;-1.50;70.70;;;;;;5106964;28;20207;-81
2022/03/08 01:26:35;;;;;;;12.15;9.85;;;-1.60;71.10;;;;;;5109170;28;20235;-81
2022/03/08 01:29:03;;;;;;;15.40;12.07;;;-1.60;71.50;;;;;;5091872;28;20224;-81
2022/03/08 01:31:30;;;;;;;13.30;10.95;;;-1.50;71.50;;;;;;5087812;28;20224;-82
2022/03/08 01:33:57;;;;;;;13.35;10.35;;;-1.60;71.30;;;;;;5103976;28;20212;-81
2022/03/08 01:36:25;;;;;;;14.18;10.60;;;-1.50;71.50;;;;;;5108571;28;20207;-81
2022/03/08 01:38:52;;;;;;;12.65;8.63;;;-1.50;71.20;;;;;;5094435;28;20224;-81
2022/03/08 01:41:19;;;;;;;13.30;10.75;;;-1.50;71.00;;;;;;5087537;28;20208;-81
2022/03/08 01:43:47;;;;;;;13.45;10.35;;;-1.40;70.90;;;;;;5100675;28;20208;-81
2022/03/08 01:46:15;;;;;;;10.35;8.70;;;-1.50;70.80;;;;;;5108700;28;20228;-81
2022/03/08 01:48:42;;;;;;;15.95;10.43;;;-1.40;70.80;;;;;;5106827;28;20224;-81
2022/03/08 01:51:10;;;;;;;11.90;10.55;;;-1.40;71.00;;;;;;5107219;28;20211;-81
2022/03/08 01:53:39;;;;;;;12.38;9.65;;;-1.50;70.80;;;;;;5096519;28;20213;-81
2022/03/08 01:56:07;;;;;;;13.65;9.82;;;-1.40;70.50;;;;;;5088013;28;20197;-81
2022/03/08 01:58:33;;;;;;;12.63;10.88;;;-1.50;70.10;;;;;;5095698;28;20224;-81
2022/03/08 02:01:02;;;;;;;14.65;10.30;;;-1.50;70.40;;;;;;5107053;28;20208;-81
2022/03/08 02:03:28;;;;;;;9.85;8.85;;;-1.50;70.30;;;;;;5102868;28;20197;-81
2022/03/08 02:05:55;;;;;;;13.68;9.52;;;-1.50;70.00;;;;;;5098713;28;20235;-81
2022/03/08 02:08:22;;;;;;;11.43;9.27;;;-1.50;70.30;;;;;;5107042;28;20212;-81
2022/03/08 02:10:51;;;;;;;11.80;9.30;;;-1.40;70.50;;;;;;5106013;28;20200;-81
2022/03/08 02:13:18;;;;;;;10.38;9.38;;;-1.40;70.10;;;;;;5102880;28;20201;-81
2022/03/08 02:15:49;;;;;;;10.95;9.88;;;-1.40;70.20;;;;;;5086961;28;20207;-81
2022/03/08 02:18:18;;;;;;;17.65;10.20;;;-1.40;69.90;;;;;;5088763;28;20196;-81
2022/03/08 02:20:46;;;;;;;14.15;10.20;;;-1.40;69.80;;;;;;5105500;28;20294;-81
2022/03/08 02:23:14;;;;;;;11.82;9.20;;;-1.40;69.80;;;;;;5103813;28;20208;-81
2022/03/08 02:25:41;;;;;;;10.48;9.13;;;-1.40;69.80;;;;;;5085760;28;20221;-81
2022/03/08 02:28:09;;;;;;;11.50;9.93;;;-1.40;69.80;;;;;;5087294;28;20205;-81
2022/03/08 02:30:35;;;;;;;13.02;8.27;;;-1.30;69.90;;;;;;5103453;28;20219;-81
2022/03/08 02:33:03;;;;;;;11.32;9.23;;;-1.40;69.60;;;;;;5102808;28;20204;-80
2022/03/08 02:35:31;;;;;;;10.05;9.00;;;-1.40;69.70;;;;;;5102759;28;20204;-81
2022/03/08 02:38:00;;;;;;;12.25;9.45;;;-1.40;69.70;;;;;;5100710;28;20208;-82
2022/03/08 02:40:30;;;;;;;12.88;9.38;;;-1.30;69.30;;;;;;5080763;28;20224;-82
2022/03/08 02:42:57;;;;;;;9.93;8.93;;;-1.40;69.20;;;;;;5084479;28;20204;-82
2022/03/08 02:45:25;;;;;;;11.50;8.35;;;-1.40;69.00;;;;;;5103434;28;20201;-82
2022/03/08 02:47:52;;;;;;;10.18;9.07;;;-1.40;69.10;;;;;;5105411;28;20211;-82
2022/03/08 02:50:20;;;;;;;11.88;8.25;;;-1.40;68.80;;;;;;5093431;28;20594;-82
2022/03/08 02:52:51;;;;;;;9.88;8.95;;;-1.40;68.90;;;;;;5086664;28;20570;-82
2022/03/08 02:55:19;;;;;;;9.75;8.23;;;-1.40;68.90;;;;;;5104648;28;20204;-82
2022/03/08 02:57:48;;;;;;;12.50;9.55;;;-1.50;69.00;;;;;;5102522;28;20201;-82
2022/03/08 03:00:19;;;;;;;11.00;9.10;;;-1.60;69.40;;;;;;5104219;28;20225;-82
2022/03/08 03:02:46;;;;;;;13.30;9.70;;;-1.70;69.90;;;;;;5103116;28;20208;-82
2022/03/08 03:05:13;;;;;;;14.10;9.20;;;-1.60;70.20;;;;;;5083406;28;20201;-82
2022/03/08 03:07:41;;;;;;;12.05;9.15;;;-1.50;70.20;;;;;;5084439;28;20228;-82
2022/03/08 03:10:09;;;;;;;11.98;8.30;;;-1.50;70.50;;;;;;5083452;28;20221;-82
2022/03/08 03:12:36;;;;;;;11.43;7.88;;;-1.50;70.60;;;;;;5084307;28;20233;-82
2022/03/08 03:15:06;;;;;;;11.70;10.63;;;-1.50;70.60;;;;;;5084038;28;20215;-82
2022/03/08 03:17:33;;;;;;;9.35;8.45;;;-1.50;71.30;;;;;;5093832;28;20200;-82
2022/03/08 03:20:00;;;;;;;12.88;8.50;;;-1.50;70.40;;;;;;5103831;28;20255;-82
2022/03/08 03:22:27;;;;;;;12.80;10.10;;;-1.60;70.20;;;;;;5093614;28;20682;-82
2022/03/08 03:24:54;;;;;;;9.80;8.90;;;-1.50;70.60;;;;;;5083139;28;20209;-81
2022/03/08 03:27:20;;;;;;;10.90;8.68;;;-1.60;70.10;;;;;;5083151;28;20709;-82
2022/03/08 03:29:47;;;;;;;8.63;7.60;;;-1.60;69.90;;;;;;5082955;28;20245;-81
2022/03/08 03:32:15;;;;;;;10.30;7.65;;;-1.60;70.10;;;;;;5091942;28;20203;-81
2022/03/08 03:34:42;;;;;;;13.40;10.13;;;-1.60;70.20;;;;;;5103682;28;20658;-82
2022/03/08 03:37:09;;;;;;;9.38;8.27;;;-1.60;70.40;;;;;;5094459;28;20227;-82
2022/03/08 03:39:35;;;;;;;10.80;8.23;;;-1.50;70.50;;;;;;5082596;28;20228;-81
2022/03/08 03:42:02;;;;;;;9.35;7.40;;;-1.60;70.10;;;;;;5097872;28;20205;-82
2022/03/08 03:44:29;;;;;;;10.68;9.30;;;-1.60;69.80;;;;;;5102780;28;20220;-82
2022/03/08 03:46:56;;;;;;;8.18;6.90;;;-1.60;69.70;;;;;;5087952;28;20228;-81
2022/03/08 03:49:24;;;;;;;8.00;7.22;;;-1.60;69.70;;;;;;5082925;28;20225;-81
2022/03/08 03:51:51;;;;;;;12.60;7.25;;;-1.60;69.80;;;;;;5095926;28;20200;-82
2022/03/08 03:54:18;;;;;;;7.57;6.85;;;-1.50;69.90;;;;;;5102240;28;20231;-82
2022/03/08 03:56:45;;;;;;;8.27;7.50;;;-1.50;69.60;;;;;;5090562;28;20258;-82
2022/03/08 03:59:12;;;;;;;9.48;8.27;;;-1.50;69.40;;;;;;5082466;28;20229;-82
2022/03/08 04:01:39;;;;;;;8.13;6.97;;;-1.50;69.00;;;;;;5093805;28;20215;-82
2022/03/08 04:04:06;;;;;;;7.80;7.10;;;-1.50;69.20;;;;;;5102296;28;20201;-82
2022/03/08 04:06:35;;;;;;;12.15;8.35;;;-1.60;69.00;;;;;;5083222;28;20224;-82
2022/03/08 04:09:02;;;;;;;9.10;7.35;;;-1.50;68.90;;;;;;5083379;28;20728;-82
2022/03/08 04:11:29;;;;;;;9.57;7.93;;;-1.50;68.60;;;;;;5103717;28;20658;-82
2022/03/08 04:13:55;;;;;;;9.60;7.80;;;-1.40;68.30;;;;;;5104156;28;20204;-82
2022/03/08 04:16:22;;;;;;;10.35;7.13;;;-1.40;68.30;;;;;;5103893;28;20201;-82
2022/03/08 04:18:49;;;;;;;9.90;6.90;;;-1.30;67.80;;;;;;5105022;28;20227;-82
2022/03/08 04:21:15;;;;;;;7.55;6.72;;;-1.30;67.50;;;;;;5102561;28;20203;-82
2022/03/08 04:23:44;;;;;;;6.10;5.50;;;-1.30;67.30;;;;;;5102379;28;20204;-82
2022/03/08 04:26:10;;;;;;;7.88;7.15;;;-1.20;67.40;;;;;;5085214;28;20212;-82
2022/03/08 04:28:37;;;;;;;11.73;7.22;;;-1.20;67.30;;;;;;5080825;28;20233;-82
2022/03/08 04:31:04;;;;;;;7.45;6.35;;;-1.30;67.30;;;;;;5096597;28;20208;-82
2022/03/08 04:33:31;;;;;;;11.02;7.82;;;-1.20;67.50;;;;;;5101862;28;20231;-82
2022/03/08 04:35:57;;;;;;;8.13;7.07;;;-1.10;67.40;;;;;;5088333;28;20208;-82
2022/03/08 04:38:24;;;;;;;8.50;7.53;;;-1.10;67.30;;;;;;5081929;28;20225;-82
2022/03/08 04:40:52;;;;;;;7.93;7.13;;;-1.10;67.10;;;;;;5082253;28;20212;-82
2022/03/08 04:43:19;;;;;;;10.68;7.47;;;-1.00;67.20;;;;;;5081835;28;20201;-82
2022/03/08 04:45:46;;;;;;;7.10;6.15;;;-1.10;67.40;;;;;;5085353;28;20213;-82
2022/03/08 04:48:13;;;;;;;11.55;8.38;;;-1.20;67.50;;;;;;5081430;28;20238;-82
2022/03/08 04:50:40;;;;;;;7.00;6.25;;;-1.10;67.70;;;;;;5091086;28;20203;-82
2022/03/08 04:53:07;;;;;;;7.68;6.95;;;-1.10;67.30;;;;;;5101585;28;20223;-82
2022/03/08 04:55:34;;;;;;;10.77;7.47;;;-1.00;67.00;;;;;;5092369;28;20577;-82
2022/03/08 04:58:02;;;;;;;7.80;6.43;;;-1.00;67.10;;;;;;5081178;28;20197;-82
2022/03/08 05:00:28;;;;;;;9.23;7.50;;;-1.00;67.00;;;;;;5089272;28;20216;-82
2022/03/08 05:02:55;;;;;;;6.95;6.30;;;-1.00;67.00;;;;;;5101810;28;20201;-81
2022/03/08 05:05:22;;;;;;;6.65;6.07;;;-1.00;67.00;;;;;;5094554;28;20203;-81
2022/03/08 05:07:49;;;;;;;7.10;6.50;;;-1.00;67.00;;;;;;5091323;28;20251;-81
2022/03/08 05:10:15;;;;;;;8.38;6.60;;;-1.00;67.10;;;;;;5096753;28;20230;-82
2022/03/08 05:12:43;;;;;;;7.35;6.65;;;-1.10;66.90;;;;;;5111277;28;20217;-81
2022/03/08 05:15:12;;;;;;;8.10;6.90;;;-1.00;67.10;;;;;;5104973;28;20201;-81
2022/03/08 05:17:39;;;;;;;8.43;7.13;;;-1.00;67.20;;;;;;5090170;28;20201;-81
2022/03/08 05:20:07;;;;;;;8.68;6.35;;;-1.00;67.20;;;;;;5102937;28;20216;-81
2022/03/08 05:22:34;;;;;;;6.72;6.22;;;-1.00;67.20;;;;;;5111582;28;20364;-81
2022/03/08 05:25:01;;;;;;;11.05;7.65;;;-1.00;67.20;;;;;;5102226;28;20203;-81
2022/03/08 05:27:27;;;;;;;7.50;6.80;;;-1.00;67.00;;;;;;5111454;28;20238;-80
2022/03/08 05:29:54;;;;;;;6.32;5.72;;;-1.00;67.30;;;;;;5091979;28;20232;-79
2022/03/08 05:32:22;;;;;;;8.05;6.50;;;-1.00;67.10;;;;;;5084259;28;20205;-80
2022/03/08 05:34:49;;;;;;;6.18;5.68;;;-1.00;66.90;;;;;;5093162;28;20266;-80
2022/03/08 05:37:16;;;;;;;7.50;6.80;;;-1.00;66.90;;;;;;5082477;28;20212;-80
2022/03/08 05:39:43;;;;;;;9.00;6.82;;;-1.00;66.90;;;;;;5091312;28;20216;-80
2022/03/08 05:42:09;;;;;;;10.50;7.60;;;-1.00;67.10;;;;;;5094055;28;20223;-80
2022/03/08 05:44:36;;;;;;;7.78;6.07;;;-1.00;67.20;;;;;;5087455;28;20208;-80
2022/03/08 05:47:04;;;;;;;8.32;6.30;;;-1.00;67.10;;;;;;5092102;28;20229;-79
2022/03/08 05:49:32;;;;;;;5.82;5.32;;;-0.90;66.90;;;;;;5097828;28;20223;-81
2022/03/08 05:51:59;;;;;;;7.18;6.47;;;-0.90;66.90;;;;;;5112183;28;20215;-81
2022/03/08 05:54:26;;;;;;;6.72;6.13;;;-0.90;67.10;;;;;;5101722;28;20208;-81
2022/03/08 05:56:52;;;;;;;9.35;6.78;;;-0.90;67.30;;;;;;5111731;28;20205;-81
2022/03/08 05:59:19;;;;;;;8.43;6.28;;;-1.00;67.30;;;;;;5106453;28;20224;-81
2022/03/08 06:01:46;;;;;;;7.03;6.32;;;-1.00;67.40;;;;;;5110329;28;20197;-81
2022/03/08 06:04:13;;;;;;;13.32;6.40;;;-1.00;67.60;;;;;;5112772;28;20198;-81
2022/03/08 06:06:41;;;;;;;7.40;5.60;;;-1.00;67.50;;;;;;5105351;28;20201;-81
2022/03/08 06:09:07;;;;;;;6.60;5.90;;;-1.00;67.40;;;;;;5105103;28;20204;-81
2022/03/08 06:11:34;;;;;;;6.65;6.07;;;-1.00;67.70;;;;;;5112515;28;20203;-81
2022/03/08 06:14:01;;;;;;;6.38;5.80;;;-1.00;67.80;;;;;;5111350;28;20219;-81
2022/03/08 06:16:28;;;;;;;7.97;7.18;;;-1.00;67.90;;;;;;5111549;28;20204;-81
2022/03/08 06:18:56;;;;;;;7.32;5.93;;;-1.00;67.80;;;;;;5110636;28;20220;-81
2022/03/08 06:21:22;;;;;;;8.40;5.63;;;-0.90;68.00;;;;;;5102493;28;20205;-81
2022/03/08 06:23:51;;;;;;;6.70;6.10;;;-0.90;67.90;;;;;;5111837;28;20200;-81
2022/03/08 06:26:18;;;;;;;6.53;5.93;;;-0.80;67.60;;;;;;5090109;28;20721;-80
2022/03/08 06:28:44;;;;;;;6.57;5.97;;;-0.80;67.70;;;;;;5087927;28;20232;-82
2022/03/08 06:31:11;;;;;;;6.82;6.18;;;-0.70;68.70;;;;;;5105180;28;20215;-81
2022/03/08 06:33:38;;;;;;;7.35;6.50;;;-0.60;67.70;;;;;;5104387;28;20201;-82
2022/03/08 06:36:05;;;;;;;6.40;5.82;;;-0.60;67.80;;;;;;5091789;28;20212;-81
2022/03/08 06:38:32;;;;;;;11.60;6.75;;;-0.60;67.90;;;;;;5092932;28;20224;-80
2022/03/08 06:41:00;;;;;;;8.30;6.65;;;-0.50;67.70;;;;;;5099010;28;20197;-80
2022/03/08 06:43:27;;;;;;;6.75;5.47;;;-0.40;67.60;;;;;;5094834;28;20216;-79
2022/03/08 06:45:54;;;;;;;7.63;5.80;;;-0.40;67.30;;;;;;5088811;28;20213;-82
2022/03/08 06:48:20;;;;;;;9.25;6.30;;;-0.30;67.20;;;;;;5093466;28;20216;-81
2022/03/08 06:50:47;;;;;;;8.60;5.95;;;-0.20;67.00;;;;;;5092993;28;20257;-82
2022/03/08 06:53:14;;;;;;;7.13;6.20;;;-0.20;66.80;;;;;;5099487;28;20201;-83
2022/03/08 06:55:41;;;;;;;6.80;6.20;;;-0.10;66.70;;;;;;5110582;28;20211;-81
2022/03/08 06:58:09;;;;;;;8.70;7.35;;;0.10;66.50;;;;;;5102142;28;20202;-81
2022/03/08 07:00:36;;;;;;;6.88;6.25;;;0.20;66.00;;;;;;5091882;28;20284;-81
2022/03/08 07:03:02;;;;;;;9.13;6.78;;;0.20;65.60;;;;;;5102550;28;20185;-82
2022/03/08 07:05:29;;;;;;;7.22;6.03;;;0.40;65.80;;;;;;5116130;28;20200;-82
2022/03/08 07:07:56;;;;;;;8.55;5.97;;;0.40;69.60;;;;;;5111467;28;20237;-82
2022/03/08 07:10:23;;;;;;;8.38;6.65;;;0.50;69.00;;;;;;5111373;28;20225;-82
2022/03/08 07:12:50;;;;;;;7.53;6.85;;;0.60;67.90;;;;;;5091646;28;20195;-80
2022/03/08 07:15:18;;;;;;;6.97;6.28;;;0.70;66.70;;;;;;5085455;28;20220;-80
2022/03/08 07:17:48;;;;;;;7.30;6.60;;;0.80;65.50;;;;;;5096237;28;20192;-78
2022/03/08 07:20:15;;;;;;;9.05;6.15;;;0.90;65.00;;;;;;5106134;28;20232;-78
2022/03/08 07:22:42;;;;;;;6.78;5.30;;;0.90;65.00;;;;;;5100163;28;20194;-79
2022/03/08 07:25:10;;;;;;;6.80;5.80;;;1.00;65.10;;;;;;5096343;28;20200;-78
2022/03/08 07:27:38;;;;;;;7.60;6.82;;;1.10;64.70;;;;;;5106853;28;20595;-78
2022/03/08 07:30:06;;;;;;;7.95;6.50;;;1.20;64.90;;;;;;5108792;28;20232;-77
2022/03/08 07:32:34;;;;;;;8.20;7.20;;;1.20;65.20;;;;;;5109129;28;20200;-78
2022/03/08 07:35:02;;;;;;;9.40;6.80;;;1.10;65.30;;;;;;5108676;28;20224;-78
2022/03/08 07:37:28;;;;;;;8.25;6.00;;;1.20;65.80;;;;;;5105256;28;20224;-79
2022/03/08 07:39:55;;;;;;;6.85;6.18;;;1.30;66.00;;;;;;5083355;28;20227;-79
2022/03/08 07:42:23;;;;;;;7.47;6.80;;;1.30;66.10;;;;;;5081859;28;20671;-79
2022/03/08 07:44:50;;;;;;;7.47;6.53;;;1.40;66.00;;;;;;5100627;28;20202;-79
2022/03/08 07:47:17;;;;;;;8.30;7.50;;;1.50;65.50;;;;;;5088930;28;20226;-78
2022/03/08 07:49:45;;;;;;;6.15;5.65;;;1.60;65.70;;;;;;5092288;28;20228;-79
2022/03/08 07:52:12;;;;;;;7.90;6.90;;;1.60;65.80;;;;;;5092074;28;20206;-78
2022/03/08 07:54:39;;;;;;;7.28;6.57;;;1.70;66.90;;;;;;5091238;28;20205;-79
2022/03/08 07:57:06;;;;;;;7.35;6.65;;;1.80;67.50;;;;;;5092189;28;20207;-79
2022/03/08 07:59:32;;;;;;;9.23;7.70;;;2.00;66.90;;;;;;5093068;28;20216;-79
2022/03/08 08:01:59;;;;;;;7.07;6.50;;;2.10;65.90;;;;;;5091916;28;20202;-80
2022/03/08 08:04:26;;;;;;;9.43;7.28;;;2.10;66.00;;;;;;5088974;28;20206;-79
2022/03/08 08:06:54;;;;;;;7.15;6.45;;;2.20;66.10;;;;;;5086310;28;20663;-78
2022/03/08 08:09:21;;;;;;;7.53;6.70;;;2.30;65.60;;;;;;5084940;28;20230;-79
2022/03/08 08:11:49;;;;;;;9.50;6.78;;;2.40;65.50;;;;;;5086908;28;20198;-80
2022/03/08 08:14:16;;;;;;;8.50;6.50;;;2.40;65.50;;;;;;5098665;28;20989;-78
2022/03/08 08:16:43;;;;;;;8.20;6.88;;;2.50;65.50;;;;;;5082473;28;20206;-80
2022/03/08 08:19:10;;;;;;;8.98;7.78;;;2.60;65.50;;;;;;5082877;28;20221;-78
2022/03/08 08:21:36;;;;;;;7.25;6.55;;;2.70;65.50;;;;;;5083219;28;20211;-80
2022/03/08 08:24:05;;;;;;;8.20;7.32;;;2.80;65.10;;;;;;5087347;28;20285;-79
2022/03/08 08:26:32;;;;;;;8.88;7.38;;;2.80;65.20;;;;;;5090241;28;20668;-81
2022/03/08 08:28:59;;;;;;;8.00;7.30;;;2.90;65.20;;;;;;5086547;28;20227;-81
2022/03/08 08:31:28;;;;;;;7.80;7.13;;;3.00;65.00;;;;;;5085460;28;20299;-80
2022/03/08 08:33:55;;;;;;;8.23;6.82;;;3.10;65.10;;;;;;5083220;28;20197;-80
2022/03/08 08:36:22;;;;;;;8.90;7.30;;;3.10;65.20;;;;;;5076036;28;20206;-81
2022/03/08 08:38:49;;;;;;;8.85;7.40;;;3.20;65.20;;;;;;5075091;28;20244;-81
2022/03/08 08:41:17;;;;;;;8.32;7.53;;;3.40;64.80;;;;;;5073654;28;20200;-81
2022/03/08 08:43:44;;;;;;;10.38;8.65;;;3.50;64.40;;;;;;5081779;28;20216;-80
2022/03/08 08:46:11;;;;;;;9.38;8.48;;;3.60;63.70;;;;;;5093678;28;20199;-81
2022/03/08 08:48:37;;;;;;;7.72;6.95;;;3.60;63.90;;;;;;5083205;28;20690;-80
2022/03/08 08:51:04;;;;;;;8.60;7.80;;;3.60;65.20;;;;;;5085798;28;20208;-79
2022/03/08 08:53:31;;;;;;;9.90;7.50;;;3.70;65.60;;;;;;5094310;28;20204;-79
2022/03/08 08:55:58;;;;;;;7.93;7.22;;;3.80;65.10;;;;;;5077671;28;20666;-79
2022/03/08 08:58:26;;;;;;;8.25;5.95;;;4.00;65.30;;;;;;5074466;28;20887;-79
2022/03/08 09:00:52;;;;;;;8.43;7.55;;;4.20;64.00;;;;;;5091808;28;20579;-79
2022/03/08 09:03:19;;;;;;;5.90;5.30;;;4.30;63.10;;;;;;5090250;28;20204;-79
2022/03/08 09:05:46;;;;;;;7.50;6.38;;;4.50;61.80;;;;;;5087565;28;20196;-79
2022/03/08 09:08:14;;;;;;;5.82;5.32;;;4.60;61.20;;;;;;5094265;28;20220;-79
2022/03/08 09:10:42;;;;;;;10.40;6.03;;;4.80;60.40;;;;;;5078123;28;20645;-79
2022/03/08 09:13:08;;;;;;;7.88;6.18;;;4.90;59.50;;;;;;5093482;28;20204;-79
2022/03/08 09:15:36;;;;;;;6.68;6.13;;;5.00;59.20;;;;;;5092434;28;20218;-79
2022/03/08 09:18:05;;;;;;;8.38;6.65;;;5.10;58.70;;;;;;5096123;28;20197;-81
2022/03/08 09:20:32;;;;;;;6.07;5.57;;;5.10;57.10;;;;;;5079644;28;20211;-81
2022/03/08 09:22:59;;;;;;;6.82;6.22;;;5.10;57.00;;;;;;5082004;28;20201;-80
2022/03/08 09:25:26;;;;;;;7.40;6.80;;;4.90;56.80;;;;;;5080095;28;20205;-80
2022/03/08 09:27:54;;;;;;;8.10;6.70;;;4.90;57.40;;;;;;5082725;28;20231;-81
2022/03/08 09:30:21;;;;;;;8.13;6.53;;;4.90;57.10;;;;;;5098268;28;20231;-81
2022/03/08 09:32:49;;;;;;;8.63;6.70;;;4.80;57.20;;;;;;5097642;28;20207;-80
2022/03/08 09:35:16;;;;;;;7.43;6.05;;;4.90;57.30;;;;;;5097626;28;20215;-79
2022/03/08 09:37:43;;;;;;;6.18;5.55;;;4.90;57.30;;;;;;5080217;28;20208;-80
2022/03/08 09:40:10;;;;;;;7.93;6.90;;;5.10;57.50;;;;;;5081805;28;20250;-81
2022/03/08 09:42:37;;;;;;;8.05;6.35;;;5.10;56.70;;;;;;5082937;28;20693;-81
2022/03/08 09:45:05;;;;;;;7.88;6.32;;;5.10;56.80;;;;;;5078960;28;20208;-79
2022/03/08 09:47:32;;;;;;;7.70;7.10;;;5.20;56.90;;;;;;5089894;28;20681;-80
2022/03/08 09:50:00;;;;;;;7.80;7.00;;;5.20;57.30;;;;;;5078668;28;20232;-80
2022/03/08 09:52:28;;;;;;;8.07;6.63;;;5.40;57.00;;;;;;5089903;28;20211;-81
2022/03/08 09:54:55;;;;;;;7.00;6.40;;;5.50;56.50;;;;;;5083391;28;20566;-79
2022/03/08 09:57:22;;;;;;;6.35;5.85;;;5.50;56.00;;;;;;5077097;28;20205;-80
2022/03/08 09:59:50;;;;;;;6.88;6.20;;;5.70;56.00;;;;;;5089383;28;20248;-79
2022/03/08 10:02:17;;;;;;;7.38;6.78;;;5.70;55.30;;;;;;5095366;28;20215;-80
2022/03/08 10:04:44;;;;;;;7.50;6.88;;;5.70;54.90;;;;;;5095097;28;20197;-81
2022/03/08 10:07:14;;;;;;;5.80;5.22;;;5.80;55.80;;;;;;5097000;28;20210;-80
2022/03/08 10:09:54;;;;;;;7.18;6.00;;;5.90;55.50;;;;;;5091254;28;20213;-80
2022/03/08 10:12:21;;;;;;;7.85;7.15;;;6.10;54.30;;;;;;5088967;28;20207;-80
2022/03/08 10:14:48;;;;;;;5.15;4.65;;;6.20;53.90;;;;;;5096262;28;20616;-80
2022/03/08 10:17:34;;;;;;;6.10;5.50;;;6.20;53.50;;;;;;5095974;28;20598;-80
2022/03/08 10:20:01;;;;;;;7.72;5.10;;;6.30;53.70;;;;;;5086185;28;20220;-80
2022/03/08 10:22:31;;;;;;;5.95;5.45;;;6.30;53.40;;;;;;5078246;28;20212;-81
2022/03/08 10:25:11;;;;;;;5.25;4.72;;;6.40;53.10;;;;;;5087384;28;20277;-80
2022/03/08 10:27:41;;;;;;;5.90;5.43;;;6.60;52.40;;;;;;5096629;28;20208;-80
2022/03/08 10:30:12;;;;;;;7.75;5.53;;;6.70;51.60;;;;;;5086036;28;20229;-81
2022/03/08 10:32:40;;;;;;;6.60;6.10;;;6.70;50.70;;;;;;5077041;28;20654;-80
2022/03/08 10:35:09;;;;;;;5.65;5.15;;;6.90;51.20;;;;;;5088721;28;20204;-80
2022/03/08 10:37:39;;;;;;;9.57;6.38;;;7.00;50.30;;;;;;5095431;28;20222;-80
2022/03/08 10:40:09;;;;;;;5.45;4.95;;;7.20;50.00;;;;;;5095200;28;20243;-81
2022/03/08 10:42:38;;;;;;;5.97;5.47;;;7.20;49.10;;;;;;5096696;28;20220;-80
2022/03/08 10:45:07;;;;;;;5.93;5.15;;;7.10;48.70;;;;;;5096209;28;20607;-80
2022/03/08 10:47:41;;;;;;;5.22;4.72;;;7.10;50.20;;;;;;5092424;28;20554;-78
2022/03/08 10:50:09;;;;;;;6.80;5.57;;;7.40;50.60;;;;;;5094014;28;20312;-79
2022/03/08 10:52:38;;;;;;;5.75;5.25;;;7.70;49.20;;;;;;5088082;28;20598;-79
2022/03/08 10:55:13;;;;;;;6.78;5.07;;;7.90;48.00;;;;;;5075933;28;20685;-79
2022/03/08 10:57:41;;;;;;;5.45;4.95;;;8.00;47.10;;;;;;5075606;28;20234;-79
2022/03/08 11:00:12;;;;;;;6.30;5.70;;;8.20;47.00;;;;;;5078056;28;20217;-79
2022/03/08 11:02:50;;;;;;;6.55;5.95;;;8.30;46.20;;;;;;5095088;28;20210;-79
2022/03/08 11:05:19;;;;;;;6.70;4.97;;;8.30;46.00;;;;;;5080348;28;20205;-79
2022/03/08 11:07:47;;;;;;;6.53;5.78;;;8.40;45.90;;;;;;5076048;28;20213;-78
2022/03/08 11:10:15;;;;;;;6.50;5.90;;;8.50;45.60;;;;;;5083178;28;20712;-80
2022/03/08 11:12:42;;;;;;;6.30;5.43;;;8.70;45.60;;;;;;5076783;28;20212;-80
2022/03/08 11:15:11;;;;;;;8.40;5.40;;;9.00;45.70;;;;;;5093787;28;20210;-81
2022/03/08 11:17:43;;;;;;;6.40;5.80;;;9.60;45.10;;;;;;5096338;28;20660;-80
2022/03/08 11:20:12;;;;;;;5.83;5.23;;;10.10;42.80;;;;;;5091146;28;20480;-80
2022/03/08 11:22:39;;;;;;;6.30;5.73;;;10.70;41.70;;;;;;5088231;28;20447;-81
2022/03/08 11:25:09;;;;;;;8.40;5.40;;;10.90;40.90;;;;;;5103496;28;20438;-83
2022/03/08 11:27:39;;;;;;;5.10;4.60;;;10.90;40.50;;;;;;5099416;28;20438;-82
2022/03/08 11:30:09;;;;;;;5.70;5.20;;;10.90;40.10;;;;;;5086311;28;20551;-83
2022/03/08 11:32:41;;;;;;;5.43;5.03;;;11.00;40.80;;;;;;5084061;28;20446;-84
2022/03/08 11:35:14;;;;;;;5.97;4.60;;;11.20;40.20;;;;;;5083424;28;20451;-83
2022/03/08 11:37:46;;;;;;;5.57;5.07;;;11.60;39.60;;;;;;5084193;28;20439;-83
2022/03/08 11:40:16;;;;;;;6.43;5.93;;;11.40;39.80;;;;;;5085040;28;20470;-83
2022/03/08 11:42:46;;;;;;;5.63;5.17;;;12.00;39.70;;;;;;5083526;28;20451;-83
2022/03/08 11:45:19;;;;;;;6.20;4.90;;;12.60;39.20;;;;;;5083856;28;20466;-83
2022/03/08 11:47:52;;;;;;;9.83;5.50;;;12.90;37.40;;;;;;5083942;28;20447;-84
2022/03/08 11:50:23;;;;;;;6.13;5.53;;;13.00;36.30;;;;;;5083603;28;20490;-83
2022/03/08 11:52:53;;;;;;;5.50;4.97;;;12.70;36.50;;;;;;5083870;28;20962;-83
2022/03/08 11:55:27;;;;;;;6.00;5.50;;;13.60;37.40;;;;;;5084600;28;20454;-83
2022/03/08 11:57:56;;;;;;;6.27;5.67;;;14.30;35.70;;;;;;5083974;28;21020;-83
2022/03/08 12:00:27;;;;;;;5.93;5.27;;;14.30;34.10;;;;;;5083778;28;20463;-83
2022/03/08 12:02:56;;;;;;;6.63;5.67;;;14.20;34.30;;;;;;5083784;28;20454;-83
2022/03/08 12:05:43;;;;;;;6.23;5.60;;;14.50;34.70;;;;;;5083709;28;20451;-83
2022/03/08 12:08:46;;;;;;;6.50;5.57;;;15.30;34.00;;;;;;5084444;28;20822;-83
2022/03/08 12:11:34;;;;;;;5.57;5.00;;;16.20;32.60;;;;;;5050566;28;20467;-83
2022/03/08 12:14:04;;;;;;;5.67;5.17;;;16.50;31.50;;;;;;5075136;28;20509;-83
2022/03/08 12:16:31;;;;;;;6.20;5.67;;;16.00;30.80;;;;;;5083375;28;20528;-82
2022/03/08 12:19:00;;;;;;;7.30;6.10;;;14.90;31.20;;;;;;5083360;28;20470;-82
2022/03/08 12:21:44;;;;;;;6.23;5.70;;;14.10;31.90;;;;;;5083366;28;20466;-82
2022/03/08 12:24:21;;;;;;;5.77;4.67;;;14.00;32.90;;;;;;5082817;28;20431;-82
2022/03/08 12:27:02;;;;;;;6.53;5.83;;;14.30;33.00;;;;;;5082864;28;20470;-83
2022/03/08 12:29:33;;;;;;;7.63;5.60;;;14.40;32.70;;;;;;5082939;28;20487;-82
2022/03/08 12:32:24;;;;;;;6.73;6.13;;;14.50;32.00;;;;;;5082373;28;20460;-83
2022/03/08 12:34:53;;;;;;;7.30;6.60;;;14.50;32.60;;;;;;5081956;28;20455;-82
2022/03/08 12:37:22;;;;;;;7.60;6.90;;;15.40;32.80;;;;;;5082395;28;20460;-82
2022/03/08 12:39:52;;;;;;;6.30;5.80;;;15.60;31.50;;;;;;5082164;28;20470;-83
2022/03/08 12:42:32;;;;;;;6.90;6.30;;;15.70;31.40;;;;;;5081911;28;20453;-83
2022/03/08 12:45:01;;;;;;;9.17;6.90;;;16.50;31.80;;;;;;5081742;28;20789;-83
2022/03/08 12:47:29;;;;;;;7.23;6.53;;;16.80;30.40;;;;;;5081308;28;20993;-83
2022/03/08 12:50:01;;;;;;;7.50;6.90;;;17.20;30.40;;;;;;5081948;28;20490;-83